Rechercher aéroport 
image banner adimage banner adimage banner ad
image banner ad

KTRM - Jacqueline Cochran Rgnl

Situé à Palm Springs, United States

ICAO - TRM, IATA -

Données fournies par Airmate  

Information générale

Coordonnées: N33°37'36" W116°9'35"
Élévation : -114 feet MSL.
Variation magnétique : 13° East
Voir autres Aéroports à California

Données opérationnelles

Special qualification required
Heure actuelle UTC:
Heure actuelle locale:
Météo
METAR: KTRM 262352Z AUTO 13007KT 10SM CLR 37/16 A2978 RMK AO2 SLP089 T03720161 10378 20294 56024
TAF: KTRM 262335Z 2700/2724 15012G19KT P6SM SCT110 FM270400 VRB03KT P6SM SKC FM272100 15012G19KT P6SM SCT110
Voir NOTAMs / SUP AIP / TFR affectant cet aéroport [VIEW]
Fréquences de communication: [VIEW]

Pistes:

Identifiant RWYQFULongueur (ft)Largeur (ft)SurfaceLDA (ft)
12135°4995100ASPH
30315°4995100ASPH
17180°8500150ASPH
358500150ASPH

Coordonnées de l'aéroport

Adresse: Palm Springs United States

Autres services d'aviation

Écoles de pilotage

Palm Springs Pilots Association

Palm Springs Pilots Association

Socal Pilot Center

Socal Pilot Center

Palm Springs Flying School

Palm Springs Flying School
cfibrian@gmail.com+1(760)399-8371

Vue satellite de KTRM